createdAt,value
2022-11-18T03:59:20.813Z,48.01
2022-11-18T04:00:21.585Z,48.01
2022-11-18T04:01:20.845Z,47.91
2022-11-18T04:02:20.976Z,47.91
2022-11-18T04:03:21.143Z,47.81
2022-11-18T04:04:21.298Z,47.81
2022-11-18T04:05:22.218Z,47.71
2022-11-18T04:06:21.621Z,47.61
2022-11-18T04:07:22.625Z,47.51
2022-11-18T04:08:22.003Z,47.49
2022-11-18T04:09:21.842Z,47.39
2022-11-18T04:10:22.010Z,47.39
2022-11-18T04:11:22.164Z,47.28
2022-11-18T04:12:22.316Z,47.28
2022-11-18T04:13:22.796Z,47.19
2022-11-18T04:14:22.634Z,47.19
2022-11-18T04:15:23.484Z,47.19
2022-11-18T04:16:22.704Z,47.19
2022-11-18T04:17:22.863Z,47.19
2022-11-18T04:18:22.236Z,47.08
2022-11-18T04:19:24.142Z,47.08
2022-11-18T04:20:22.432Z,46.98
2022-11-18T04:21:22.597Z,46.98
2022-11-18T04:22:22.770Z,46.98
2022-11-18T04:23:22.844Z,46.98
2022-11-18T04:24:24.651Z,46.98
2022-11-18T04:25:23.108Z,46.86
2022-11-18T04:26:23.317Z,46.86
2022-11-18T04:27:23.323Z,46.86
2022-11-18T04:28:23.516Z,46.86
2022-11-18T04:29:23.624Z,46.86
2022-11-18T04:30:25.431Z,46.86
2022-11-18T04:31:25.748Z,46.76
2022-11-18T04:32:26.006Z,46.76
2022-11-18T04:33:26.592Z,46.76
2022-11-18T04:34:26.881Z,46.76
2022-11-18T04:35:24.391Z,46.76
2022-11-18T04:36:27.135Z,46.76
2022-11-18T04:37:24.650Z,46.76
2022-11-18T04:38:25.710Z,46.66
2022-11-18T04:39:28.051Z,46.76
2022-11-18T04:40:26.964Z,46.66
2022-11-18T04:41:25.210Z,46.66
2022-11-18T04:42:26.091Z,46.66
2022-11-18T04:43:25.457Z,46.66
2022-11-18T04:44:26.421Z,46.66
2022-11-18T04:45:28.271Z,46.66
2022-11-18T04:46:26.738Z,46.66
2022-11-18T04:47:26.897Z,46.56
2022-11-18T04:48:28.080Z,46.66
2022-11-18T04:49:28.722Z,46.56
2022-11-18T04:50:27.593Z,46.56
2022-11-18T04:51:27.282Z,46.66
2022-11-18T04:52:26.842Z,46.66
2022-11-18T04:53:26.809Z,46.56
2022-11-18T04:54:30.086Z,46.56
2022-11-18T04:55:27.936Z,46.66
2022-11-18T04:56:27.244Z,46.66
2022-11-18T04:57:29.975Z,46.66
2022-11-18T04:58:28.493Z,46.66
2022-11-18T04:59:27.686Z,46.56
2022-11-18T05:00:28.720Z,46.56
2022-11-18T05:01:28.818Z,46.56
2022-11-18T05:02:29.729Z,46.56
2022-11-18T05:03:28.216Z,46.56
2022-11-18T05:04:28.396Z,46.56
2022-11-18T05:05:30.133Z,46.56
2022-11-18T05:06:28.597Z,46.56
2022-11-18T05:07:30.396Z,46.56
2022-11-18T05:08:28.845Z,46.56
2022-11-18T05:09:32.121Z,46.56
2022-11-18T05:10:29.155Z,46.56
2022-11-18T05:11:30.952Z,46.46
2022-11-18T05:12:31.226Z,46.46
2022-11-18T05:13:31.445Z,46.46
2022-11-18T05:14:31.235Z,46.46
2022-11-18T05:15:29.729Z,46.46
2022-11-18T05:16:29.855Z,46.46
2022-11-18T05:17:29.958Z,46.46
2022-11-18T05:18:30.185Z,46.46
2022-11-18T05:19:31.933Z,46.46
2022-11-18T05:20:30.433Z,46.46
2022-11-18T05:21:30.573Z,46.46
2022-11-18T05:22:31.726Z,46.46
2022-11-18T05:23:33.413Z,46.46
2022-11-18T05:24:33.663Z,46.46
2022-11-18T05:25:31.133Z,46.46
2022-11-18T05:26:32.983Z,46.46
2022-11-18T05:27:31.398Z,46.46
2022-11-18T05:28:33.973Z,46.46
2022-11-18T05:29:32.916Z,46.46
2022-11-18T05:30:31.823Z,46.46
2022-11-18T05:31:31.945Z,46.46
2022-11-18T05:32:32.131Z,46.36
2022-11-18T05:33:33.850Z,46.36
2022-11-18T05:34:32.384Z,46.36
2022-11-18T05:35:32.462Z,46.36
2022-11-18T05:36:35.201Z,46.36
2022-11-18T05:37:35.165Z,46.36
2022-11-18T05:38:34.583Z,46.36
2022-11-18T05:39:33.004Z,46.36
2022-11-18T05:40:35.733Z,46.36
2022-11-18T05:41:34.541Z,46.36
2022-11-18T05:42:33.393Z,46.36
2022-11-18T05:43:33.571Z,46.36
2022-11-18T05:44:33.630Z,46.36
2022-11-18T05:45:33.752Z,46.36
2022-11-18T05:46:35.560Z,46.36
2022-11-18T05:47:35.010Z,46.26
2022-11-18T05:48:34.225Z,46.26
2022-11-18T05:49:34.278Z,46.26
2022-11-18T05:50:34.412Z,46.26
2022-11-18T05:51:36.164Z,46.26
2022-11-18T05:52:34.681Z,46.26
2022-11-18T05:53:34.794Z,46.26
2022-11-18T05:54:34.948Z,46.26
2022-11-18T05:55:36.709Z,46.26
2022-11-18T05:56:36.999Z,46.36
2022-11-18T05:57:35.351Z,46.26
2022-11-18T05:58:35.515Z,46.26
2022-11-18T05:59:37.224Z,46.26
2022-11-18T06:00:35.747Z,46.26
2022-11-18T06:01:37.524Z,46.26
2022-11-18T06:02:36.066Z,46.26
2022-11-18T06:03:36.099Z,46.26
2022-11-18T06:04:37.868Z,46.26
2022-11-18T06:05:36.351Z,46.26
2022-11-18T06:06:37.498Z,46.26
2022-11-18T06:07:37.830Z,46.26
2022-11-18T06:08:36.799Z,46.26
2022-11-18T06:09:37.893Z,46.26
2022-11-18T06:10:37.048Z,46.26
2022-11-18T06:11:37.138Z,46.26
2022-11-18T06:12:38.937Z,46.26
2022-11-18T06:13:37.469Z,46.26
2022-11-18T06:14:37.621Z,46.15
2022-11-18T06:15:37.675Z,46.15
2022-11-18T06:16:40.790Z,46.15
2022-11-18T06:17:39.705Z,46.15
2022-11-18T06:18:39.141Z,46.15
2022-11-18T06:19:38.286Z,46.15
2022-11-18T06:20:38.408Z,46.15
2022-11-18T06:21:39.525Z,46.15
2022-11-18T06:22:46.161Z,46.15
2022-11-18T06:23:41.601Z,46.15
2022-11-18T06:24:38.974Z,46.15
2022-11-18T06:25:39.095Z,46.15
2022-11-18T06:26:39.260Z,46.15
2022-11-18T06:27:41.074Z,46.15
2022-11-18T06:28:39.542Z,46.15
2022-11-18T06:29:39.594Z,46.15
2022-11-18T06:30:41.422Z,46.15
2022-11-18T06:31:39.861Z,46.15
2022-11-18T06:32:40.057Z,46.15
2022-11-18T06:33:40.123Z,46.15
2022-11-18T06:34:41.943Z,46.15
2022-11-18T06:35:40.477Z,46.15
2022-11-18T06:36:42.311Z,46.15
2022-11-18T06:37:40.945Z,46.15
2022-11-18T06:38:42.650Z,46.15
2022-11-18T06:39:41.063Z,46.15
2022-11-18T06:40:41.108Z,46.15
2022-11-18T06:41:41.373Z,46.15
2022-11-18T06:42:41.504Z,46.15
2022-11-18T06:43:43.226Z,46.15
2022-11-18T06:44:45.649Z,46.15
2022-11-18T06:45:42.994Z,46.15
2022-11-18T06:46:50.147Z,46.06
2022-11-18T06:47:44.772Z,46.06
2022-11-18T06:48:45.814Z,46.06
2022-11-18T06:49:45.483Z,46.06
2022-11-18T06:50:42.355Z,46.06
2022-11-18T06:51:44.312Z,45.95
2022-11-18T06:52:44.145Z,46.06
2022-11-18T06:53:42.835Z,46.06
2022-11-18T06:54:43.261Z,46.06
2022-11-18T06:55:43.539Z,46.06
2022-11-18T06:56:49.894Z,45.95
2022-11-18T06:57:43.476Z,46.06
2022-11-18T06:58:45.322Z,45.95
2022-11-18T06:59:43.573Z,46.06
2022-11-18T07:00:44.727Z,46.06
2022-11-18T07:01:44.040Z,46.06
2022-11-18T07:02:43.940Z,46.06
2022-11-18T07:03:45.819Z,46.06
2022-11-18T07:04:44.782Z,46.06
2022-11-18T07:05:45.149Z,46.06
2022-11-18T07:06:44.490Z,46.06
2022-11-18T07:07:47.312Z,46.06
2022-11-18T07:08:46.387Z,45.95
2022-11-18T07:09:46.547Z,45.95
2022-11-18T07:10:45.050Z,45.95
2022-11-18T07:11:46.870Z,45.95
2022-11-18T07:12:45.239Z,45.95
2022-11-18T07:13:46.168Z,45.95
2022-11-18T07:14:47.710Z,45.95
2022-11-18T07:15:45.557Z,45.95
2022-11-18T07:16:46.430Z,45.95
2022-11-18T07:17:48.957Z,45.95
2022-11-18T07:18:46.900Z,45.95
2022-11-18T07:19:47.659Z,45.95
2022-11-18T07:20:47.043Z,45.95
2022-11-18T07:21:47.438Z,45.95
2022-11-18T07:22:48.315Z,45.95
2022-11-18T07:23:46.747Z,45.95
2022-11-18T07:24:49.476Z,45.95
2022-11-18T07:25:46.951Z,45.95
2022-11-18T07:26:47.174Z,45.95
2022-11-18T07:27:47.188Z,45.95
2022-11-18T07:28:49.111Z,45.95
2022-11-18T07:29:47.444Z,45.95
2022-11-18T07:30:48.575Z,45.95
2022-11-18T07:31:47.806Z,45.95
2022-11-18T07:32:48.126Z,45.95
2022-11-18T07:33:52.387Z,45.95
2022-11-18T07:34:48.477Z,45.86
2022-11-18T07:35:48.321Z,45.86
2022-11-18T07:36:48.570Z,45.86
2022-11-18T07:37:51.218Z,45.86
2022-11-18T07:38:48.712Z,45.86
2022-11-18T07:39:48.916Z,45.86
2022-11-18T07:40:49.104Z,45.86
2022-11-18T07:41:50.895Z,45.86
2022-11-18T07:42:49.376Z,45.86
2022-11-18T07:43:56.158Z,45.86
2022-11-18T07:44:52.668Z,45.86
2022-11-18T07:45:50.758Z,45.86
2022-11-18T07:46:56.770Z,45.86
2022-11-18T07:47:50.229Z,45.86
2022-11-18T07:48:50.122Z,45.86
2022-11-18T07:49:51.903Z,45.86
2022-11-18T07:50:52.385Z,45.86
2022-11-18T07:51:50.486Z,45.86
2022-11-18T07:52:51.634Z,45.86
2022-11-18T07:53:52.577Z,45.86
2022-11-18T07:54:50.840Z,45.86
2022-11-18T07:55:51.044Z,45.86
2022-11-18T07:56:53.042Z,45.86
2022-11-18T07:57:53.315Z,45.86
2022-11-18T07:58:54.598Z,45.86
2022-11-18T07:59:51.823Z,45.86
2022-11-18T08:00:52.741Z,45.86
2022-11-18T08:01:52.924Z,45.75
2022-11-18T08:02:53.130Z,45.86
2022-11-18T08:03:53.108Z,45.75
2022-11-18T08:04:52.310Z,45.75
2022-11-18T08:05:54.275Z,45.75
2022-11-18T08:06:55.052Z,45.75
2022-11-18T08:07:52.751Z,45.75
2022-11-18T08:08:52.834Z,45.75
2022-11-18T08:09:55.591Z,45.75
2022-11-18T08:10:53.263Z,45.75
2022-11-18T08:11:53.528Z,45.75
2022-11-18T08:12:53.359Z,45.75
2022-11-18T08:13:53.930Z,45.75
2022-11-18T08:14:57.051Z,45.75
2022-11-18T08:15:53.841Z,45.65
2022-11-18T08:16:54.701Z,45.75
2022-11-18T08:17:54.071Z,45.75
2022-11-18T08:18:55.923Z,45.75
2022-11-18T08:19:54.382Z,45.65
2022-11-18T08:20:55.655Z,45.75
2022-11-18T08:21:54.631Z,45.75
2022-11-18T08:22:56.455Z,45.75
2022-11-18T08:23:55.600Z,45.75
2022-11-18T08:24:55.954Z,45.65
2022-11-18T08:25:56.278Z,45.65
2022-11-18T08:26:55.157Z,45.65
2022-11-18T08:27:55.240Z,45.65
2022-11-18T08:29:04.622Z,45.65
2022-11-18T08:29:58.625Z,45.65
2022-11-18T08:30:58.547Z,45.75
2022-11-18T08:31:57.441Z,45.65
2022-11-18T08:33:06.708Z,45.65
2022-11-18T08:33:57.750Z,45.75
2022-11-18T08:35:05.384Z,45.65
2022-11-18T08:35:57.456Z,45.65
2022-11-18T08:36:56.598Z,45.65
2022-11-18T08:38:01.101Z,45.65
2022-11-18T08:38:57.984Z,45.65
2022-11-18T08:39:59.866Z,45.65
2022-11-18T08:40:57.403Z,45.65
2022-11-18T08:42:04.734Z,45.65
2022-11-18T08:43:04.484Z,45.65
2022-11-18T08:44:21.749Z,45.65
2022-11-18T08:45:01.195Z,45.65
2022-11-18T08:47:14.743Z,45.65
2022-11-18T08:48:24.753Z,45.65
2022-11-18T08:49:17.022Z,45.65
2022-11-18T08:50:15.257Z,45.65
2022-11-18T08:51:15.383Z,45.65
2022-11-18T08:52:15.407Z,45.65
2022-11-18T08:53:18.726Z,45.65
2022-11-18T08:54:15.697Z,45.65
2022-11-18T08:55:16.250Z,45.65
2022-11-18T08:56:17.725Z,45.65
2022-11-18T08:57:16.568Z,45.65
2022-11-18T08:58:21.444Z,45.55
2022-11-18T08:59:18.507Z,45.55
2022-11-18T09:00:18.412Z,45.65
2022-11-18T09:01:21.083Z,45.65
2022-11-18T09:02:20.038Z,45.65
2022-11-18T09:03:32.019Z,45.65
2022-11-18T09:04:19.545Z,45.65
2022-11-18T09:05:23.101Z,45.65
2022-11-18T09:07:34.305Z,45.65
2022-11-18T09:08:35.283Z,45.65
2022-11-18T09:09:35.907Z,45.65
2022-11-18T09:10:33.718Z,45.65
2022-11-18T09:11:34.606Z,45.65
2022-11-18T09:12:35.683Z,45.65
2022-11-18T09:15:39.541Z,45.65
2022-11-18T09:16:34.773Z,45.65
2022-11-18T09:17:35.023Z,45.65
2022-11-18T09:18:36.480Z,45.65
2022-11-18T09:19:52.083Z,45.65
2022-11-18T09:20:36.134Z,45.65
2022-11-18T09:21:39.709Z,45.65
2022-11-18T09:22:36.323Z,45.65
2022-11-18T09:23:35.388Z,45.65
2022-11-18T09:24:37.531Z,45.65
2022-11-18T09:25:36.726Z,45.55
2022-11-18T09:26:45.303Z,45.55
2022-11-18T09:27:36.923Z,45.55
2022-11-18T09:28:37.342Z,45.55
2022-11-18T09:29:37.111Z,45.55
2022-11-18T09:30:36.555Z,45.55
2022-11-18T09:31:36.445Z,45.55
2022-11-18T09:32:38.342Z,45.55
2022-11-18T09:33:38.520Z,45.55
2022-11-18T09:34:40.267Z,45.55
2022-11-18T09:35:38.058Z,45.55
2022-11-18T09:36:38.103Z,45.55
2022-11-18T09:37:38.010Z,45.55
2022-11-18T09:38:39.149Z,45.55
2022-11-18T09:39:43.857Z,45.55
2022-11-18T09:40:37.792Z,45.55
2022-11-18T09:41:39.500Z,45.55
2022-11-18T09:42:38.789Z,45.45
2022-11-18T09:43:39.040Z,45.45
2022-11-18T09:44:40.057Z,45.45
2022-11-18T09:45:39.508Z,45.45
2022-11-18T09:46:39.869Z,45.45
2022-11-18T09:47:42.182Z,45.45
2022-11-18T09:48:40.841Z,45.45
2022-11-18T09:49:39.699Z,45.45
2022-11-18T09:50:50.347Z,45.45
2022-11-18T09:51:40.535Z,45.45
2022-11-18T09:52:41.174Z,45.45
2022-11-18T09:53:42.938Z,45.45
2022-11-18T09:54:42.288Z,45.45
2022-11-18T09:55:39.800Z,45.45
2022-11-18T09:56:40.971Z,45.45
2022-11-18T09:57:40.129Z,45.45
2022-11-18T09:58:43.297Z,45.45
2022-11-18T09:59:43.189Z,45.45
2022-11-18T10:00:41.485Z,45.35
2022-11-18T10:01:40.816Z,45.35
2022-11-18T10:02:40.937Z,45.45
2022-11-18T10:13:24.704Z,45.87
2022-11-18T10:14:23.794Z,45.87
2022-11-18T10:15:24.212Z,45.87
2022-11-18T10:16:29.556Z,45.87
2022-11-18T10:17:27.159Z,45.87
2022-11-18T10:18:59.170Z,45.87
2022-11-18T10:19:23.661Z,45.87
2022-11-18T10:20:22.937Z,45.87
2022-11-18T10:21:23.094Z,45.78
2022-11-18T10:22:25.033Z,45.78
2022-11-18T10:23:24.109Z,45.67
2022-11-18T10:24:26.537Z,45.67
2022-11-18T10:25:26.246Z,45.67
2022-11-18T10:26:32.966Z,45.67
2022-11-18T10:27:24.975Z,45.67
2022-11-18T10:28:32.249Z,45.57
2022-11-18T10:29:56.167Z,45.57
2022-11-18T10:30:25.532Z,45.57
2022-11-18T10:31:45.625Z,45.57
2022-11-18T10:32:24.620Z,45.57
2022-11-18T10:33:25.731Z,45.57
2022-11-18T10:34:25.487Z,45.47
2022-11-18T10:35:27.828Z,45.47
2022-11-18T10:36:29.401Z,45.47
2022-11-18T10:37:39.012Z,45.47
2022-11-18T10:38:26.452Z,45.47
2022-11-18T10:39:25.293Z,45.37
2022-11-18T10:40:25.458Z,45.35
2022-11-18T10:41:26.594Z,45.35
2022-11-18T10:42:26.007Z,45.35
2022-11-18T10:43:26.477Z,45.35
2022-11-18T10:44:29.641Z,45.35
2022-11-18T10:45:38.128Z,45.25
2022-11-18T10:46:37.055Z,45.25
2022-11-18T10:47:27.409Z,45.25
2022-11-18T10:48:31.976Z,45.25
2022-11-18T10:49:28.175Z,45.25
2022-11-18T10:50:26.570Z,45.25
2022-11-18T10:51:28.640Z,45.25
2022-11-18T10:52:27.703Z,45.15
2022-11-18T10:53:29.644Z,45.15
2022-11-18T10:54:27.217Z,45.15
2022-11-18T10:55:30.977Z,45.15
2022-11-18T10:56:27.668Z,45.15
2022-11-18T10:57:28.242Z,45.15
2022-11-18T10:58:30.284Z,45.15
2022-11-18T10:59:29.745Z,45.15
2022-11-18T11:00:31.377Z,45.05
2022-11-18T11:01:29.761Z,45.05
2022-11-18T11:02:29.922Z,45.05
2022-11-18T11:03:29.364Z,45.15
2022-11-18T11:04:31.521Z,45.05
2022-11-18T11:05:30.410Z,45.05
2022-11-18T11:06:30.202Z,45.35
2022-11-18T11:07:30.614Z,45.45
2022-11-18T11:08:37.003Z,45.35
2022-11-18T11:09:30.222Z,45.35
2022-11-18T11:10:34.899Z,45.25
2022-11-18T11:11:30.219Z,45.25
2022-11-18T11:12:30.439Z,45.15
2022-11-18T11:13:31.061Z,45.15
2022-11-18T11:14:30.889Z,45.25
2022-11-18T11:15:31.108Z,45.25
2022-11-18T11:16:32.582Z,45.15
2022-11-18T11:17:32.478Z,45.15
2022-11-18T11:18:31.099Z,45.15
2022-11-18T11:19:31.286Z,45.15
2022-11-18T11:20:30.688Z,45.15
2022-11-18T11:21:30.759Z,45.15
2022-11-18T11:22:32.526Z,45.15
2022-11-18T11:23:31.949Z,45.15
2022-11-18T11:24:33.257Z,45.15
2022-11-18T11:28:34.365Z,45.05
2022-11-18T11:29:32.033Z,45.05
2022-11-18T11:30:33.942Z,45.05
2022-11-18T11:31:38.843Z,45.05
2022-11-18T11:32:33.189Z,44.95
2022-11-18T11:33:33.283Z,44.95
2022-11-18T11:34:35.215Z,44.95
2022-11-18T11:35:35.473Z,44.95
2022-11-18T11:36:35.668Z,44.95
2022-11-18T11:37:34.987Z,44.95
2022-11-18T11:38:33.170Z,44.95
2022-11-18T11:39:33.408Z,44.95
2022-11-18T11:40:34.402Z,44.95
2022-11-18T11:41:35.213Z,44.95
2022-11-18T11:42:33.728Z,44.95
2022-11-18T11:43:34.832Z,44.95
2022-11-18T11:44:34.740Z,44.85
2022-11-18T11:45:36.706Z,44.85
2022-11-18T11:46:35.235Z,44.85
2022-11-18T11:47:35.213Z,44.85
2022-11-18T11:48:35.373Z,44.87
2022-11-18T11:49:35.555Z,44.87
2022-11-18T11:50:38.611Z,44.87
2022-11-18T11:51:35.864Z,44.87
2022-11-18T11:52:37.968Z,44.77
2022-11-18T11:53:36.318Z,44.77
2022-11-18T11:54:36.347Z,44.77
2022-11-18T11:55:36.492Z,44.77
2022-11-18T11:56:38.380Z,44.77
2022-11-18T11:57:36.120Z,44.67
2022-11-18T11:58:35.995Z,44.67
2022-11-18T11:59:36.161Z,44.67
2022-11-18T12:00:36.309Z,44.67
2022-11-18T12:01:38.055Z,44.67
2022-11-18T12:02:39.724Z,44.65
2022-11-18T12:03:36.712Z,44.65
2022-11-18T12:04:49.355Z,44.67
2022-11-18T12:05:51.663Z,44.67
2022-11-18T12:06:40.318Z,44.67
2022-11-18T12:07:40.738Z,44.57
2022-11-18T12:08:38.070Z,44.57
2022-11-18T12:09:38.221Z,44.57
2022-11-18T12:10:38.429Z,44.57
2022-11-18T12:11:40.425Z,44.57
2022-11-18T12:12:41.281Z,44.57
2022-11-18T12:13:40.579Z,44.57
2022-11-18T12:14:40.078Z,44.57
2022-11-18T12:15:42.313Z,44.57
2022-11-18T12:16:40.418Z,44.57
2022-11-18T12:17:49.996Z,44.57
2022-11-18T12:18:47.476Z,44.57
2022-11-18T12:19:42.405Z,44.47
2022-11-18T12:20:39.168Z,44.57
2022-11-18T12:21:40.270Z,44.47
2022-11-18T12:22:40.301Z,44.57
2022-11-18T12:23:42.149Z,44.57
2022-11-18T12:24:42.918Z,44.57
2022-11-18T12:25:39.800Z,44.67
2022-11-18T12:26:39.978Z,44.57
2022-11-18T12:27:40.070Z,44.47
2022-11-18T12:28:40.228Z,44.47
2022-11-18T12:29:40.462Z,44.47
2022-11-18T12:30:43.111Z,44.37
2022-11-18T12:31:41.490Z,44.37
2022-11-18T12:32:43.364Z,44.37
2022-11-18T12:33:42.834Z,44.27
2022-11-18T12:34:42.914Z,44.27
2022-11-18T12:35:42.350Z,44.27
2022-11-18T12:36:42.979Z,44.27
2022-11-18T12:37:44.716Z,44.27
2022-11-18T12:38:42.356Z,44.27
2022-11-18T12:39:43.357Z,44.17
2022-11-18T12:40:48.847Z,44.17
2022-11-18T12:41:44.877Z,44.17
2022-11-18T12:42:45.566Z,44.17
2022-11-18T12:43:45.326Z,44.17
2022-11-18T12:44:44.145Z,44.07
2022-11-18T12:45:44.456Z,43.96
2022-11-18T12:46:45.850Z,43.96
2022-11-18T12:47:44.404Z,43.96
2022-11-18T12:48:42.964Z,43.96
2022-11-18T12:49:43.085Z,43.96
2022-11-18T12:50:43.224Z,43.96
2022-11-18T12:51:43.344Z,43.87
2022-11-18T12:52:45.084Z,43.96
2022-11-18T12:53:43.626Z,43.87
2022-11-18T12:54:43.764Z,43.87
2022-11-18T12:55:43.910Z,43.87
2022-11-18T12:56:45.705Z,43.87
2022-11-18T12:57:45.903Z,43.76
2022-11-18T12:58:46.134Z,43.76
2022-11-18T12:59:44.422Z,43.76
2022-11-18T13:00:44.601Z,43.76
2022-11-18T13:01:46.274Z,43.76
2022-11-18T13:02:44.794Z,43.76
2022-11-18T13:03:44.925Z,43.66
2022-11-18T13:04:48.603Z,43.66
2022-11-18T13:05:47.843Z,43.66
2022-11-18T13:06:48.554Z,43.66
2022-11-18T13:07:45.581Z,43.66
2022-11-18T13:08:48.211Z,43.66
2022-11-18T13:09:46.541Z,43.66
2022-11-18T13:10:50.385Z,43.66
2022-11-18T13:11:48.786Z,43.66
2022-11-18T13:12:47.021Z,43.66
2022-11-18T13:13:48.876Z,43.56
2022-11-18T13:14:47.474Z,43.66
2022-11-18T13:15:46.571Z,43.56
2022-11-18T13:16:46.701Z,43.66
2022-11-18T13:17:46.823Z,43.56
2022-11-18T13:18:48.085Z,43.56
2022-11-18T13:19:48.812Z,43.56
2022-11-18T13:20:49.058Z,43.56
2022-11-18T13:21:47.442Z,43.56
2022-11-18T13:22:47.570Z,43.56
2022-11-18T13:23:47.767Z,43.56
2022-11-18T13:24:49.597Z,43.56
2022-11-18T13:25:48.978Z,43.56
2022-11-18T13:26:49.037Z,43.46
2022-11-18T13:27:48.260Z,43.46
2022-11-18T13:28:50.010Z,43.46
2022-11-18T13:29:53.697Z,43.46
2022-11-18T13:30:52.193Z,43.46
2022-11-18T13:31:48.747Z,43.46
2022-11-18T13:32:48.902Z,43.46
2022-11-18T13:33:49.873Z,43.46
2022-11-18T13:34:51.070Z,43.46
2022-11-18T13:35:49.291Z,43.46
2022-11-18T13:36:49.412Z,43.56
2022-11-18T13:37:52.090Z,43.46
2022-11-18T13:38:50.421Z,43.46
2022-11-18T13:39:52.370Z,43.46
2022-11-18T13:40:52.596Z,43.46
2022-11-18T13:41:50.101Z,43.46
2022-11-18T13:42:53.261Z,43.46
2022-11-18T13:43:53.958Z,43.36
2022-11-18T13:44:52.347Z,43.36
2022-11-18T13:45:53.964Z,43.36
2022-11-18T13:46:50.737Z,43.36
2022-11-18T13:47:50.910Z,43.36
2022-11-18T13:48:51.005Z,43.36
2022-11-18T13:49:52.845Z,43.36
2022-11-18T13:50:52.257Z,43.36
2022-11-18T13:51:51.425Z,43.26
2022-11-18T13:52:52.396Z,43.26
2022-11-18T13:53:52.558Z,43.26
2022-11-18T13:54:51.965Z,43.26
2022-11-18T13:55:53.907Z,43.26
2022-11-18T13:56:53.076Z,43.26
2022-11-18T13:57:52.358Z,43.26
2022-11-18T13:59:53.533Z,43.26
2022-11-18T14:00:54.382Z,43.26
2022-11-18T14:01:52.832Z,43.16
2022-11-18T14:02:54.594Z,43.26
2022-11-18T14:03:53.424Z,43.26
2022-11-18T14:04:53.252Z,43.26
2022-11-18T14:05:53.445Z,43.38
2022-11-18T14:06:56.138Z,43.28
2022-11-18T14:07:53.712Z,43.28
2022-11-18T14:08:53.904Z,43.28
2022-11-18T14:09:53.953Z,43.28
2022-11-18T14:10:55.034Z,43.28
2022-11-18T14:11:55.984Z,43.28
2022-11-18T14:12:54.376Z,43.18
2022-11-18T14:13:54.563Z,43.18
2022-11-18T14:14:56.325Z,43.28
2022-11-18T14:15:54.953Z,43.26
2022-11-18T14:16:56.615Z,43.26
2022-11-18T14:17:55.028Z,43.28
2022-11-18T14:18:55.167Z,43.28
2022-11-18T14:19:56.896Z,43.28
2022-11-18T14:20:55.412Z,43.28
2022-11-18T14:21:56.559Z,43.28
2022-11-18T14:22:56.432Z,43.28
2022-11-18T14:23:56.591Z,43.28
2022-11-18T14:24:58.587Z,43.28
2022-11-18T14:25:56.917Z,43.38
2022-11-18T14:26:57.094Z,43.28
2022-11-18T14:27:56.506Z,43.28
2022-11-18T14:28:56.599Z,43.28
2022-11-18T14:29:58.342Z,43.38
2022-11-18T14:30:58.585Z,43.38
2022-11-18T14:31:58.841Z,43.36
2022-11-18T14:32:58.036Z,43.38
2022-11-18T14:33:57.246Z,43.26
2022-11-18T14:34:57.323Z,43.36
2022-11-18T14:35:57.480Z,43.28
2022-11-18T14:36:59.231Z,43.36
2022-11-18T14:38:22.327Z,43.36
2022-11-18T14:39:19.815Z,43.26
2022-11-18T14:40:00.619Z,43.28
2022-11-18T14:40:58.211Z,43.38
2022-11-18T14:41:58.280Z,43.38
2022-11-18T14:43:00.519Z,43.38
2022-11-18T14:43:58.522Z,43.28
2022-11-18T14:45:00.307Z,43.38
2022-11-18T14:46:00.508Z,43.38
2022-11-18T14:47:00.759Z,43.28
2022-11-18T14:47:59.115Z,43.28
2022-11-18T14:49:00.880Z,43.38
2022-11-18T14:49:59.338Z,43.28
2022-11-18T14:50:59.523Z,43.28
2022-11-18T14:51:59.674Z,43.28
2022-11-18T14:52:59.828Z,43.28
2022-11-18T14:54:01.559Z,43.28
2022-11-18T14:55:01.803Z,43.28
2022-11-18T14:56:00.258Z,43.18
2022-11-18T14:57:02.008Z,43.18
2022-11-18T14:58:02.295Z,43.18
2022-11-18T14:59:00.628Z,43.18
2022-11-18T15:00:02.368Z,43.18
2022-11-18T15:01:00.914Z,43.18
2022-11-18T15:02:01.176Z,43.18
2022-11-18T15:03:01.129Z,43.18
2022-11-18T15:04:02.875Z,43.18
2022-11-18T15:05:01.375Z,43.18
2022-11-18T15:06:01.507Z,43.08
2022-11-18T15:07:01.757Z,43.08
2022-11-18T15:08:01.800Z,43.18
2022-11-18T15:09:03.539Z,43.08
2022-11-18T15:10:02.102Z,42.98
2022-11-18T15:11:02.214Z,43.08
2022-11-18T15:12:03.985Z,42.98
2022-11-18T15:13:02.521Z,42.98
2022-11-18T15:14:04.248Z,42.98
2022-11-18T15:15:04.484Z,42.98
2022-11-18T15:16:02.885Z,42.88
2022-11-18T15:17:03.008Z,42.88
2022-11-18T15:18:04.729Z,42.88
2022-11-18T15:19:03.274Z,42.88
2022-11-18T15:20:04.977Z,42.78
2022-11-18T15:21:03.543Z,42.78
2022-11-18T15:22:05.263Z,42.88
2022-11-18T15:23:03.823Z,42.78
2022-11-18T15:24:05.586Z,42.78
2022-11-18T15:25:04.091Z,42.68
2022-11-18T15:26:05.842Z,42.68
2022-11-18T15:27:06.113Z,42.68
2022-11-18T15:28:05.461Z,42.68
2022-11-18T15:29:04.668Z,42.68
2022-11-18T15:30:04.730Z,42.68
2022-11-18T15:31:04.854Z,42.58
2022-11-18T15:32:05.002Z,42.58
2022-11-18T15:33:06.721Z,42.58
2022-11-18T15:34:06.958Z,42.58
2022-11-18T15:35:05.383Z,42.58
2022-11-18T15:36:07.138Z,42.58
2022-11-18T15:37:05.670Z,42.58
2022-11-18T15:38:06.740Z,42.58
2022-11-18T15:39:05.884Z,42.58
2022-11-18T15:40:07.650Z,42.58
2022-11-18T15:41:07.903Z,42.58
2022-11-18T15:42:06.343Z,42.47
2022-11-18T15:43:06.462Z,42.47
2022-11-18T15:44:06.596Z,42.47
2022-11-18T15:45:06.705Z,42.47
2022-11-18T15:46:08.489Z,42.47
2022-11-18T15:47:06.990Z,42.47
2022-11-18T15:48:08.720Z,42.47
2022-11-18T15:49:09.487Z,42.38
2022-11-18T15:50:07.415Z,42.47
2022-11-18T15:51:11.620Z,42.38
2022-11-18T15:52:08.678Z,42.38
2022-11-18T15:53:08.799Z,42.27
2022-11-18T15:54:09.600Z,42.27
2022-11-18T15:55:08.412Z,42.27
2022-11-18T15:56:08.246Z,42.18
2022-11-18T15:57:10.016Z,42.18
2022-11-18T15:58:08.507Z,42.18
2022-11-18T15:59:10.355Z,42.07
2022-11-18T16:00:08.805Z,42.18
2022-11-18T16:01:09.024Z,42.07
2022-11-18T16:12:31.594Z,42.30
2022-11-18T16:13:32.708Z,42.32
2022-11-18T16:14:31.345Z,42.32
2022-11-18T16:15:31.529Z,42.32
2022-11-18T16:16:33.195Z,42.32
2022-11-18T16:17:33.433Z,42.19
2022-11-18T16:18:39.341Z,42.10
2022-11-18T16:19:32.914Z,42.10
2022-11-18T16:20:32.072Z,41.99
2022-11-18T16:21:33.025Z,41.99
2022-11-18T16:22:31.452Z,41.99
2022-11-18T16:23:33.183Z,41.99
2022-11-18T16:24:31.643Z,41.89
2022-11-18T16:25:31.794Z,41.79
2022-11-18T16:26:31.952Z,41.79
2022-11-18T16:27:33.712Z,41.79
2022-11-18T16:28:32.287Z,41.69
2022-11-18T16:29:33.330Z,41.69
2022-11-18T16:30:32.519Z,41.59
2022-11-18T16:31:32.675Z,41.59
2022-11-18T16:32:34.446Z,41.59
2022-11-18T16:33:34.671Z,41.59
2022-11-18T16:34:33.104Z,41.59
2022-11-18T16:35:33.264Z,41.59
2022-11-18T16:36:35.000Z,41.49
2022-11-18T16:37:35.251Z,41.49
2022-11-18T16:38:34.692Z,41.49
2022-11-18T16:39:33.820Z,41.49
2022-11-18T16:40:33.990Z,41.39
2022-11-18T16:41:34.209Z,41.39
2022-11-18T16:42:36.852Z,41.39
2022-11-18T16:43:34.482Z,41.39
2022-11-18T16:44:37.164Z,41.39
2022-11-18T16:45:36.518Z,41.39
2022-11-18T16:46:34.842Z,41.29
2022-11-18T16:47:36.590Z,41.29
2022-11-18T16:48:37.499Z,41.29
2022-11-18T16:49:37.748Z,41.19
2022-11-18T16:50:35.368Z,41.29
2022-11-18T16:51:38.030Z,41.19
2022-11-18T16:52:38.288Z,41.29
2022-11-18T16:53:36.760Z,41.19
2022-11-18T16:54:44.417Z,41.19
2022-11-18T16:55:37.037Z,41.19
2022-11-18T16:56:36.180Z,41.09
2022-11-18T16:57:36.304Z,41.09
2022-11-18T16:58:38.036Z,40.99
2022-11-18T16:59:36.590Z,41.09
2022-11-18T17:01:09.282Z,40.99
2022-11-18T17:01:37.927Z,40.99
2022-11-18T17:02:38.642Z,40.89
2022-11-18T17:03:37.138Z,40.99
2022-11-18T17:04:38.926Z,40.99
2022-11-18T17:05:39.197Z,40.89
2022-11-18T17:06:37.505Z,40.89
2022-11-18T17:07:38.790Z,40.78
2022-11-18T17:08:38.835Z,40.78
2022-11-18T17:09:39.607Z,40.78
2022-11-18T17:10:38.105Z,40.69
2022-11-18T17:11:38.225Z,40.69
2022-11-18T17:12:38.390Z,40.69
2022-11-18T17:13:39.495Z,40.69
2022-11-18T17:14:40.283Z,40.58
2022-11-18T17:15:38.735Z,40.58
2022-11-18T17:16:38.885Z,40.69
2022-11-18T17:17:39.045Z,40.58
2022-11-18T17:18:39.214Z,40.58
2022-11-18T17:19:41.052Z,40.58
2022-11-18T17:20:39.465Z,40.58
2022-11-18T17:21:39.595Z,40.48